Time;durP1;ratioP1;P1;durP2;ratioP2;P2;SDS_P1;SDS_P2;PMS_P1;PMS_P2;Temp;Humidity;BMP_temperature;BMP_pressure;BME280_temperature;BME280_humidity;BME280_pressure;Samples;Min_cycle;Max_cycle;Signal;HPM_P1;HPM_P2
2023/01/14 00:01:16;;;;;;;32.60;3.92;;;;;;;6.10;100.00;99922.28;6218165;23;20008;-95
2023/01/14 00:03:42;;;;;;;39.97;5.13;;;;;;;6.21;100.00;99927.72;6217647;23;20047;-94
2023/01/14 00:06:11;;;;;;;48.95;5.30;;;;;;;6.24;100.00;99909.63;6218339;23;20012;-94
2023/01/14 00:08:36;;;;;;;32.20;3.78;;;;;;;6.27;100.00;99904.38;6218437;23;20008;-94
2023/01/14 00:11:07;;;;;;;37.25;3.40;;;;;;;6.31;100.00;99903.28;6218888;23;20050;-95
2023/01/14 00:13:35;;;;;;;39.97;3.58;;;;;;;6.39;100.00;99898.66;6218738;23;20296;-93
2023/01/14 00:16:01;;;;;;;42.70;5.15;;;;;;;6.30;100.00;99855.53;6219500;23;20008;-95
2023/01/14 00:18:26;;;;;;;58.88;8.95;;;;;;;6.45;100.00;99871.06;6218800;23;20008;-94
2023/01/14 00:21:13;;;;;;;32.42;3.97;;;;;;;6.37;100.00;99849.19;6218597;23;20007;-95
2023/01/14 00:23:39;;;;;;;46.97;3.90;;;;;;;6.58;100.00;99872.09;6218476;23;20343;-95
2023/01/14 00:26:09;;;;;;;40.22;5.22;;;;;;;6.51;100.00;99845.09;6218418;23;20008;-94
2023/01/14 00:28:35;;;;;;;45.28;4.85;;;;;;;6.67;100.00;99847.72;6218416;23;20036;-93
2023/01/14 00:31:07;;;;;;;37.97;3.65;;;;;;;6.61;100.00;99826.63;6218150;23;20015;-95
2023/01/14 00:33:34;;;;;;;52.13;5.78;;;;;;;6.71;100.00;99826.16;6217939;23;20004;-94
2023/01/14 00:35:59;;;;;;;27.13;4.03;;;;;;;6.73;100.00;99822.59;6219858;23;20336;-94
2023/01/14 00:38:26;;;;;;;39.33;4.47;;;;;;;6.81;100.00;99827.34;6220285;23;20001;-94
2023/01/14 00:41:04;;;;;;;40.53;5.07;;;;;;;6.79;100.00;99799.19;6219995;23;20007;-93
2023/01/14 00:43:29;;;;;;;30.75;3.97;;;;;;;6.84;100.00;99794.66;6220516;23;20004;-93
2023/01/14 00:45:55;;;;;;;32.47;4.88;;;;;;;6.82;100.00;99788.75;6219923;23;20504;-93
2023/01/14 00:48:20;;;;;;;33.72;4.50;;;;;;;6.87;100.00;99783.41;6219423;23;20493;-93
2023/01/14 00:50:46;;;;;;;30.38;3.45;;;;;;;6.89;100.00;99770.50;6246537;23;20003;-94
2023/01/14 00:53:11;;;;;;;29.55;3.10;;;;;;;6.92;100.00;99772.91;6219813;23;20083;-93
2023/01/14 00:55:37;;;;;;;28.13;3.35;;;;;;;6.89;100.00;99755.13;6219307;22;20004;-93
2023/01/14 00:58:02;;;;;;;36.47;4.20;;;;;;;6.99;100.00;99751.13;6219396;23;20000;-93
2023/01/14 01:00:28;;;;;;;36.72;3.67;;;;;;;6.95;100.00;99753.06;6219478;23;20001;-93
2023/01/14 01:02:53;;;;;;;29.80;3.15;;;;;;;6.89;100.00;99730.28;6219159;23;20008;-93
2023/01/14 01:05:19;;;;;;;38.30;5.45;;;;;;;6.98;100.00;99716.16;6245896;23;20019;-93
2023/01/14 01:07:44;;;;;;;31.63;3.42;;;;;;;7.03;100.00;99740.63;6218927;23;20008;-93
2023/01/14 01:10:10;;;;;;;32.60;3.80;;;;;;;7.08;100.00;99722.44;6246062;23;20036;-94
2023/01/14 01:12:35;;;;;;;28.98;3.13;;;;;;;7.08;100.00;99715.56;6219234;23;20004;-92
2023/01/14 01:15:01;;;;;;;15.43;2.08;;;;;;;7.03;100.00;99698.75;6246114;23;20000;-92
2023/01/14 01:17:28;;;;;;;40.72;3.17;;;;;;;7.08;100.00;99707.03;6245866;22;20027;-93
2023/01/14 01:19:54;;;;;;;33.70;4.25;;;;;;;7.08;100.00;99704.47;6218615;23;20058;-93
2023/01/14 01:22:20;;;;;;;27.15;3.15;;;;;;;7.06;100.00;99668.63;6219273;23;20030;-92
2023/01/14 01:24:45;;;;;;;24.70;3.35;;;;;;;7.12;100.00;99672.59;6218933;23;20120;-93
2023/01/14 01:27:11;;;;;;;21.83;2.85;;;;;;;7.12;100.00;99656.34;6218887;23;20434;-93
2023/01/14 01:29:37;;;;;;;26.27;2.15;;;;;;;7.09;100.00;99647.09;6218846;23;20008;-94
2023/01/14 01:32:02;;;;;;;32.83;2.58;;;;;;;7.16;100.00;99645.84;6219209;23;20034;-92
2023/01/14 01:34:28;;;;;;;19.98;2.78;;;;;;;7.17;100.00;99624.41;6218497;23;20062;-93
2023/01/14 01:36:54;;;;;;;27.10;2.97;;;;;;;7.20;100.00;99624.22;6218705;23;20008;-93
2023/01/14 01:39:19;;;;;;;21.58;3.00;;;;;;;7.12;100.00;99611.00;6218897;23;20008;-93
2023/01/14 01:41:45;;;;;;;21.88;2.20;;;;;;;7.20;100.00;99602.88;6245667;23;20015;-93
2023/01/14 01:44:13;;;;;;;14.98;1.90;;;;;;;7.28;100.00;99608.38;6218898;23;20011;-93
2023/01/14 01:46:40;;;;;;;17.52;2.13;;;;;;;7.23;100.00;99595.81;6218561;23;20031;-92
2023/01/14 01:49:25;;;;;;;20.38;2.53;;;;;;;7.33;100.00;99579.91;6245020;23;20004;-93
2023/01/14 01:52:07;;;;;;;20.65;2.20;;;;;;;7.36;100.00;99572.00;6245521;23;20011;-92
2023/01/14 01:54:41;;;;;;;17.85;1.52;;;;;;;7.37;100.00;99563.41;6218903;23;20027;-93
2023/01/14 01:57:10;;;;;;;15.18;1.60;;;;;;;7.40;100.00;99558.09;6218469;23;20094;-93
2023/01/14 01:59:41;;;;;;;8.55;1.23;;;;;;;7.45;100.00;99545.81;6218541;23;20343;-92
2023/01/14 02:02:07;;;;;;;6.00;1.00;;;;;;;7.47;100.00;99556.81;6218600;23;20000;-93
2023/01/14 02:04:33;;;;;;;19.60;2.00;;;;;;;7.50;100.00;99543.78;6244954;23;19996;-93
2023/01/14 02:06:59;;;;;;;10.05;1.20;;;;;;;7.46;100.00;99526.91;6218569;23;20011;-92
2023/01/14 02:09:24;;;;;;;7.78;1.08;;;;;;;7.46;100.00;99514.06;6218588;23;20012;-92
2023/01/14 02:12:17;;;;;;;6.85;1.10;;;;;;;7.49;100.00;99508.78;6218494;23;20008;-93
2023/01/14 02:14:55;;;;;;;8.93;2.40;;;;;;;7.50;100.00;99500.97;6218361;23;20054;-93
2023/01/14 02:17:38;;;;;;;7.60;1.15;;;;;;;7.49;100.00;99478.78;6218338;23;20012;-92
2023/01/14 02:20:22;;;;;;;10.60;1.08;;;;;;;7.54;100.00;99473.38;6218208;23;20004;-92
2023/01/14 02:23:21;;;;;;;20.38;1.05;;;;;;;7.58;100.00;99454.28;6218136;23;20316;-92
2023/01/14 02:26:00;;;;;;;27.23;2.20;;;;;;;7.51;100.00;99432.50;6218711;22;20008;-93
2023/01/14 02:28:41;;;;;;;6.50;1.17;;;;;;;7.66;100.00;99413.56;6218053;23;20007;-93
2023/01/14 02:31:09;;;;;;;7.60;0.85;;;;;;;7.59;100.00;99399.44;6245620;23;20087;-93
2023/01/14 02:33:47;;;;;;;10.77;0.70;;;;;;;7.66;100.00;99394.75;6245299;23;20022;-92
2023/01/14 02:36:39;;;;;;;7.38;1.10;;;;;;;7.66;100.00;99380.19;6244952;22;20004;-93
2023/01/14 02:39:42;;;;;;;6.47;0.82;;;;;;;7.71;100.00;99378.13;6218318;23;20039;-91
2023/01/14 02:45:37;;;;;;;3.00;0.68;;;;;;;7.75;100.00;99363.34;6245106;23;20092;-93
2023/01/14 02:48:05;;;;;;;8.95;1.50;;;;;;;7.74;100.00;99336.03;6217902;23;20062;-93
2023/01/14 02:50:33;;;;;;;15.75;1.50;;;;;;;7.82;100.00;99332.97;6218164;23;20004;-92
2023/01/14 02:52:58;;;;;;;14.10;1.50;;;;;;;7.81;100.00;99314.16;6217238;23;20419;-93
2023/01/14 02:55:36;;;;;;;10.85;1.73;;;;;;;7.86;100.00;99301.03;6217618;23;20046;-93
2023/01/14 02:58:14;;;;;;;9.88;1.00;;;;;;;7.87;100.00;99289.81;6218054;23;20031;-93
2023/01/14 03:00:49;;;;;;;7.07;1.42;;;;;;;7.88;100.00;99276.88;6218081;23;20091;-93
2023/01/14 03:03:45;;;;;;;13.68;1.40;;;;;;;7.90;100.00;99269.06;6217918;23;20457;-93
2023/01/14 03:06:29;;;;;;;6.68;1.10;;;;;;;7.93;100.00;99249.16;6244867;22;20004;-93
2023/01/14 03:09:19;;;;;;;12.02;1.40;;;;;;;7.99;100.00;99231.69;6217339;23;20011;-92
2023/01/14 03:12:04;;;;;;;9.73;1.27;;;;;;;7.96;100.00;99227.56;6218081;23;20095;-92
2023/01/14 03:14:38;;;;;;;10.52;1.27;;;;;;;7.99;100.00;99216.25;6218060;23;20075;-92
2023/01/14 03:17:16;;;;;;;8.73;1.20;;;;;;;8.00;100.00;99203.31;6218061;23;20089;-93
2023/01/14 03:19:59;;;;;;;10.85;1.08;;;;;;;8.06;100.00;99213.19;6244634;23;20000;-92
2023/01/14 03:22:27;;;;;;;20.63;1.60;;;;;;;-143.29;100.00;62188.47;6217692;23;20000;-93
2023/01/14 03:24:56;;;;;;;11.65;1.08;;;;;;;-143.29;100.00;62188.47;6216995;23;20000;-93
2023/01/14 03:27:24;;;;;;;17.02;1.35;;;;;;;-143.29;100.00;62188.47;6217675;23;20534;-92
2023/01/14 03:30:10;;;;;;;18.77;2.13;;;;;;;-143.29;100.00;62188.47;6217817;23;20011;-92
2023/01/14 03:33:00;;;;;;;15.88;1.20;;;;;;;-143.29;100.00;62188.47;6244150;22;20004;-93
2023/01/14 03:35:30;;;;;;;12.02;1.30;;;;;;;-143.29;100.00;62188.47;6217912;23;20008;-92
2023/01/14 03:38:02;;;;;;;6.45;1.20;;;;;;;-143.29;100.00;62188.47;6244294;22;20008;-92
2023/01/14 03:40:30;;;;;;;20.05;3.95;;;;;;;-143.29;100.00;62188.47;6217814;23;20008;-92
2023/01/14 03:43:02;;;;;;;7.45;1.73;;;;;;;-143.29;100.00;62188.47;6217178;23;20031;-93
2023/01/14 03:45:32;;;;;;;16.23;1.48;;;;;;;-143.29;100.00;62188.47;6217783;23;20005;-93
2023/01/14 03:47:59;;;;;;;10.40;1.25;;;;;;;-143.29;100.00;62188.47;6244391;23;20004;-92
2023/01/14 03:50:31;;;;;;;15.48;1.55;;;;;;;-143.29;100.00;62188.47;6217803;23;20435;-92
2023/01/14 03:53:03;;;;;;;18.30;1.42;;;;;;;-143.29;100.00;62188.47;6217945;23;20004;-92
2023/01/14 03:55:52;;;;;;;16.13;2.30;;;;;;;-143.29;100.00;62188.47;6217615;23;20012;-92
2023/01/14 03:58:27;;;;;;;8.57;1.25;;;;;;;-143.29;100.00;62188.47;6216974;23;20025;-92
2023/01/14 04:01:08;;;;;;;16.38;1.67;;;;;;;-143.29;100.00;62188.47;6217669;23;20004;-92
2023/01/14 04:03:35;;;;;;;10.25;1.40;;;;;;;-143.29;100.00;62188.47;6244477;23;20087;-93
2023/01/14 04:06:01;;;;;;;21.83;2.13;;;;;;;9.21;100.00;99047.41;6217561;23;20004;-92
2023/01/14 04:08:26;;;;;;;13.25;1.83;;;;;;;9.14;100.00;99030.78;6217648;23;20004;-91
2023/01/14 04:10:52;;;;;;;12.98;1.58;;;;;;;-143.29;100.00;62188.47;6246290;22;20001;-91
2023/01/14 04:16:03;;;;;;;9.52;1.23;;;;;;;-143.29;100.00;62188.47;6246625;22;20015;-92
2023/01/14 04:18:29;;;;;;;12.43;1.50;;;;;;;-143.29;100.00;62188.47;6219500;23;20031;-90
2023/01/14 04:20:54;;;;;;;14.88;1.30;;;;;;;-143.29;100.00;62188.47;6246473;23;20427;-92
2023/01/14 04:23:20;;;;;;;15.90;1.77;;;;;;;-143.29;100.00;62188.47;6219563;23;20423;-91
2023/01/14 04:25:47;;;;;;;13.52;1.23;;;;;;;-143.29;100.00;62188.47;6246446;22;20359;-93
2023/01/14 04:28:13;;;;;;;17.65;2.15;;;;;;;-143.29;100.00;62188.47;6218990;23;20015;-93
2023/01/14 04:30:41;;;;;;;13.02;1.88;;;;;;;-143.29;100.00;62188.47;6219747;23;20079;-91
2023/01/14 04:33:06;;;;;;;20.00;2.42;;;;;;;-143.29;100.00;62188.47;6219650;23;20312;-91
2023/01/14 04:35:32;;;;;;;16.63;1.38;;;;;;;-143.29;100.00;62188.47;6219403;22;20082;-93
2023/01/14 04:37:57;;;;;;;23.90;3.05;;;;;;;-143.29;100.00;62188.47;6219722;23;20087;-91
2023/01/14 04:40:23;;;;;;;13.50;1.58;;;;;;;-143.29;100.00;62188.47;6246149;23;20349;-91
2023/01/14 04:42:50;;;;;;;11.88;1.23;;;;;;;-143.29;100.00;62188.47;6219128;23;20418;-91
2023/01/14 04:45:16;;;;;;;11.52;1.50;;;;;;;-143.29;100.00;62188.47;6246203;23;20000;-92
2023/01/14 04:47:42;;;;;;;21.90;1.83;;;;;;;-143.29;100.00;62188.47;6246066;22;20004;-92
2023/01/14 04:52:54;;;;;;;13.90;1.60;;;;;;;-143.29;100.00;62188.47;6246164;23;20019;-92
2023/01/14 04:55:19;;;;;;;15.07;1.23;;;;;;;-143.29;100.00;62188.47;6219251;23;20004;-92
2023/01/14 04:57:45;;;;;;;11.30;1.27;;;;;;;-143.29;100.00;62188.47;6218685;23;20050;-91
2023/01/14 05:00:12;;;;;;;12.70;1.58;;;;;;;-143.29;100.00;62188.47;6219249;23;20004;-90
2023/01/14 05:02:43;;;;;;;15.50;1.35;;;;;;;-143.29;100.00;62188.47;6219307;23;20542;-92
2023/01/14 05:05:15;;;;;;;12.30;1.80;;;;;;;-143.29;100.00;62188.47;6246159;23;19996;-91
2023/01/14 05:07:41;;;;;;;11.70;1.70;;;;;;;-143.29;100.00;62188.47;6245817;22;20019;-93
2023/01/14 05:10:06;;;;;;;7.20;1.30;;;;;;;-143.29;100.00;62188.47;6246058;23;20000;-93
2023/01/14 05:12:32;;;;;;;13.18;1.52;;;;;;;-143.29;100.00;62188.47;6246333;23;20031;-91
2023/01/14 05:14:57;;;;;;;17.50;1.63;;;;;;;-143.29;100.00;62188.47;6218278;23;20067;-93
2023/01/14 05:17:23;;;;;;;12.00;1.75;;;;;;;-143.29;100.00;62188.47;6218793;23;20062;-91
2023/01/14 05:19:49;;;;;;;20.50;1.40;;;;;;;-143.29;100.00;62188.47;6245619;23;20012;-92
2023/01/14 05:22:14;;;;;;;12.77;1.60;;;;;;;-143.29;100.00;62188.47;6245757;23;20416;-93
2023/01/14 05:24:40;;;;;;;15.40;1.60;;;;;;;-143.29;100.00;62188.47;6219053;23;20032;-93
2023/01/14 05:27:05;;;;;;;9.15;1.13;;;;;;;-143.29;100.00;62188.47;6218951;23;20391;-93
2023/01/14 05:29:30;;;;;;;11.73;1.10;;;;;;;-143.29;100.00;62188.47;6245157;23;20091;-93
2023/01/14 05:31:56;;;;;;;17.13;1.70;;;;;;;-143.29;100.00;62188.47;6218558;23;20004;-92
2023/01/14 05:34:21;;;;;;;25.48;3.15;;;;;;;-143.29;100.00;62188.47;6219014;23;20011;-91
2023/01/14 05:36:47;;;;;;;13.00;1.65;;;;;;;-143.29;100.00;62188.47;6219043;23;20004;-92
2023/01/14 05:39:12;;;;;;;18.88;2.70;;;;;;;-143.29;100.00;62188.47;6219015;23;20336;-92
2023/01/14 05:45:37;;;;;;;18.98;3.58;;;;;;;-143.29;100.00;62188.47;6218700;23;20019;-93
2023/01/14 05:47:07;;;;;;;22.65;2.10;;;;;;;-143.29;100.00;62188.47;6244822;22;20095;-91
2023/01/14 05:49:33;;;;;;;19.40;1.98;;;;;;;-143.29;100.00;62188.47;6218619;23;20415;-91
2023/01/14 05:51:58;;;;;;;19.58;1.92;;;;;;;-143.29;100.00;62188.47;6218804;23;20012;-93
2023/01/14 05:54:24;;;;;;;25.38;2.38;;;;;;;-143.29;100.00;62188.47;6218594;23;20004;-93
2023/01/14 05:56:49;;;;;;;15.90;2.05;;;;;;;-143.29;100.00;62188.47;6218691;23;20065;-93
2023/01/14 05:59:15;;;;;;;17.08;2.70;;;;;;;-143.29;100.00;62188.47;6218799;23;20011;-93
2023/01/14 06:07:08;;;;;;;20.30;2.53;;;;;;;-143.29;100.00;62188.47;6245287;22;20041;-93
2023/01/14 06:09:33;;;;;;;13.65;2.42;;;;;;;-143.29;100.00;62188.47;6218535;23;20008;-93
2023/01/14 06:12:02;;;;;;;25.10;2.33;;;;;;;-143.29;100.00;62188.47;6245257;23;20476;-90
2023/01/14 06:14:36;;;;;;;19.98;2.65;;;;;;;-143.29;100.00;62188.47;6245471;23;20067;-93
2023/01/14 06:17:06;;;;;;;12.88;2.42;;;;;;;-143.29;100.00;62188.47;6218093;23;20091;-93
2023/01/14 06:19:32;;;;;;;20.77;2.53;;;;;;;-143.29;100.00;62188.47;6244561;23;20003;-92
2023/01/14 06:21:57;;;;;;;27.20;4.55;;;;;;;-143.29;100.00;62188.47;6218362;23;20012;-92
2023/01/14 06:24:23;;;;;;;25.88;2.17;;;;;;;-143.29;100.00;62188.47;6218184;23;20407;-93
2023/01/14 06:26:48;;;;;;;23.45;2.90;;;;;;;-143.29;100.00;62188.47;6245131;22;20118;-93
2023/01/14 06:29:14;;;;;;;21.20;2.33;;;;;;;-143.29;100.00;62188.47;6218236;23;20400;-92
2023/01/14 06:31:41;;;;;;;19.42;2.28;;;;;;;-143.29;100.00;62188.47;6244455;23;20005;-93
2023/01/14 06:34:07;;;;;;;14.60;2.13;;;;;;;-143.29;100.00;62188.47;6218180;23;20000;-92
2023/01/14 06:36:34;;;;;;;19.90;3.53;;;;;;;-143.29;100.00;62188.47;6218027;23;20000;-92
2023/01/14 06:38:59;;;;;;;11.15;1.67;;;;;;;-143.29;100.00;62188.47;6244962;23;20422;-93
2023/01/14 06:41:25;;;;;;;20.50;2.95;;;;;;;-143.29;100.00;62188.47;6218094;23;20012;-93
2023/01/14 06:43:51;;;;;;;23.90;2.85;;;;;;;-143.29;100.00;62188.47;6244927;23;20374;-92
2023/01/14 06:46:17;;;;;;;17.23;2.20;;;;;;;-143.29;100.00;62188.47;6245037;22;20419;-93
2023/01/14 06:48:43;;;;;;;17.27;1.80;;;;;;;-143.29;100.00;62188.47;6217408;23;20073;-92
2023/01/14 06:51:14;;;;;;;15.57;1.70;;;;;;;-143.29;100.00;62188.47;6244709;23;20023;-92
2023/01/14 06:53:40;;;;;;;17.50;1.75;;;;;;;-143.29;100.00;62188.47;6217879;23;20007;-93
2023/01/14 06:56:09;;;;;;;17.55;2.38;;;;;;;-143.29;100.00;62188.47;6244726;22;20004;-93
2023/01/14 06:58:35;;;;;;;14.02;2.05;;;;;;;-143.29;100.00;62188.47;6217852;23;20019;-91
2023/01/14 07:01:05;;;;;;;12.35;1.63;;;;;;;-143.29;100.00;62188.47;6217941;23;20050;-90
2023/01/14 07:03:31;;;;;;;18.20;2.15;;;;;;;-143.29;100.00;62188.47;6218016;23;20004;-91
2023/01/14 07:05:58;;;;;;;13.93;1.30;;;;;;;-143.29;100.00;62188.47;6216969;23;20004;-92
2023/01/14 07:08:24;;;;;;;21.48;2.35;;;;;;;-143.29;100.00;62188.47;6217223;23;20042;-92
2023/01/14 07:10:50;;;;;;;22.70;2.10;;;;;;;-143.29;100.00;62188.47;6218079;23;20060;-90
2023/01/14 07:13:21;;;;;;;14.00;1.60;;;;;;;-143.29;100.00;62188.47;6217990;23;20009;-91
2023/01/14 07:15:47;;;;;;;12.38;1.73;;;;;;;-143.29;100.00;62188.47;6244882;22;20007;-90
2023/01/14 07:18:13;;;;;;;10.02;1.30;;;;;;;-143.29;100.00;62188.47;6245041;23;20004;-92
2023/01/14 07:20:39;;;;;;;10.40;1.58;;;;;;;-143.29;100.00;62188.47;6244702;23;20003;-91
2023/01/14 07:23:05;;;;;;;11.20;1.52;;;;;;;-143.29;100.00;62188.47;6217170;23;20004;-92
2023/01/14 07:25:31;;;;;;;10.30;1.58;;;;;;;-143.29;100.00;62188.47;6244787;23;20000;-94
2023/01/14 07:27:56;;;;;;;9.00;1.25;;;;;;;-143.29;100.00;62188.47;6244477;22;20439;-93
2023/01/14 07:30:22;;;;;;;8.10;0.98;;;;;;;-143.29;100.00;62188.47;6217780;23;20015;-92
2023/01/14 07:32:47;;;;;;;17.17;2.03;;;;;;;-143.29;100.00;62188.47;6217767;23;20004;-92
2023/01/14 07:35:13;;;;;;;10.57;1.00;;;;;;;-143.29;100.00;62188.47;6244650;23;20023;-92
2023/01/14 07:37:39;;;;;;;4.38;1.23;;;;;;;-143.29;100.00;62188.47;6243804;22;20091;-92
2023/01/14 07:40:05;;;;;;;6.00;0.70;;;;;;;-143.29;100.00;62188.47;6244366;23;20004;-92
2023/01/14 07:42:31;;;;;;;9.63;1.05;;;;;;;-143.29;100.00;62188.47;6244492;23;20001;-92
2023/01/14 07:44:56;;;;;;;4.00;0.80;;;;;;;-143.29;100.00;62188.47;6217689;23;20004;-94
2023/01/14 07:47:22;;;;;;;8.27;0.82;;;;;;;-143.29;100.00;62188.47;6217715;23;20082;-92
2023/01/14 07:49:48;;;;;;;9.10;1.63;;;;;;;-143.29;100.00;62188.47;6244623;23;20058;-92
2023/01/14 07:52:13;;;;;;;6.57;0.65;;;;;;;-143.29;100.00;62188.47;6217184;23;20050;-93
2023/01/14 07:54:42;;;;;;;9.70;2.38;;;;;;;-143.29;100.00;62188.47;6244363;23;20000;-93
2023/01/14 07:57:09;;;;;;;9.60;0.63;;;;;;;-143.29;100.00;62188.47;6244515;22;20000;-93
2023/01/14 07:59:36;;;;;;;4.75;0.70;;;;;;;-143.29;100.00;62188.47;6244450;23;20000;-92
2023/01/14 08:02:01;;;;;;;7.63;0.82;;;;;;;-143.29;100.00;62188.47;6217530;23;20497;-93
2023/01/14 08:04:27;;;;;;;4.05;1.08;;;;;;;-143.29;100.00;62188.47;6217682;23;20024;-95
2023/01/14 08:06:52;;;;;;;3.22;0.60;;;;;;;-143.29;100.00;62188.47;6217624;23;20008;-93
2023/01/14 08:09:18;;;;;;;5.07;1.25;;;;;;;-143.29;100.00;62188.47;6244403;23;20004;-92
2023/01/14 08:11:44;;;;;;;6.80;0.98;;;;;;;-143.29;100.00;62188.47;6217595;23;20042;-92
2023/01/14 08:14:09;;;;;;;3.60;0.40;;;;;;;-143.29;100.00;62188.47;6217611;23;20087;-93
2023/01/14 08:16:35;;;;;;;7.18;0.70;;;;;;;-143.29;100.00;62188.47;6244169;22;20035;-93
2023/01/14 08:19:00;;;;;;;3.72;0.50;;;;;;;-143.29;100.00;62188.47;6217517;23;20028;-93
2023/01/14 08:21:26;;;;;;;6.95;0.47;;;;;;;-143.29;100.00;62188.47;6217821;23;20026;-92
2023/01/14 08:23:51;;;;;;;1.67;0.32;;;;;;;-143.29;100.00;62188.47;6217226;23;20014;-93
2023/01/14 08:26:17;;;;;;;2.45;0.43;;;;;;;-143.29;100.00;62188.47;6217603;23;20385;-94
2023/01/14 08:28:42;;;;;;;1.92;0.38;;;;;;;-143.29;100.00;62188.47;6217647;23;20024;-93
2023/01/14 08:31:11;;;;;;;1.73;0.60;;;;;;;-143.29;100.00;62188.47;6217420;23;20055;-93
2023/01/14 08:33:37;;;;;;;2.05;0.60;;;;;;;-143.29;100.00;62188.47;6218142;23;20000;-92
2023/01/14 08:36:06;;;;;;;3.75;0.35;;;;;;;-143.29;100.00;62188.47;6217827;23;20011;-93
2023/01/14 08:38:37;;;;;;;2.35;0.60;;;;;;;-143.29;100.00;62188.47;6243288;23;20102;-93
2023/01/14 08:41:10;;;;;;;5.07;0.65;;;;;;;-143.29;100.00;62188.47;6216988;23;20087;-93
2023/01/14 08:43:37;;;;;;;1.67;0.40;;;;;;;-143.29;100.00;62188.47;6217251;23;20081;-93
2023/01/14 08:46:04;;;;;;;4.78;0.32;;;;;;;-143.29;100.00;62188.47;6244251;22;20059;-93
2023/01/14 08:48:30;;;;;;;1.98;0.30;;;;;;;-143.29;100.00;62188.47;6244375;22;20008;-92
2023/01/14 08:51:07;;;;;;;1.98;0.30;;;;;;;-143.29;100.00;62188.47;6217683;23;20036;-93
2023/01/14 08:53:35;;;;;;;4.57;0.50;;;;;;;-143.29;100.00;62188.47;6218606;23;20004;-92
2023/01/14 08:56:02;;;;;;;4.13;0.45;;;;;;;-143.29;100.00;62188.47;6245040;22;20076;-92
2023/01/14 08:58:27;;;;;;;1.42;0.20;;;;;;;-143.29;100.00;62188.47;6219553;23;20364;-92
2023/01/14 09:01:02;;;;;;;3.03;0.30;;;;;;;-143.29;100.00;62188.47;6246455;23;20039;-92
2023/01/14 09:03:30;;;;;;;0.80;0.20;;;;;;;-143.29;100.00;62188.47;6219607;23;20095;-91
2023/01/14 09:06:04;;;;;;;1.10;0.00;;;;;;;-143.29;100.00;62188.47;6244274;22;20007;-92
2023/01/14 09:18:13;;;;;;;0.00;0.00;;;;;;;;;;5070761;28;20050;-94
2023/01/14 09:20:39;;;;;;;0.32;0.30;;;;;;;;;;5046379;28;20515;-93
2023/01/14 09:23:05;;;;;;;0.22;0.10;;;;;;;;;;5044109;28;20076;-93
2023/01/14 09:25:31;;;;;;;1.85;0.25;;;;;;;;;;5043057;28;20030;-93
2023/01/14 09:27:56;;;;;;;7.57;0.55;;;;;;;;;;5061412;28;20105;-93
2023/01/14 09:30:22;;;;;;;6.00;0.60;;;;;;;;;;5045407;28;20017;-93
2023/01/14 09:32:47;;;;;;;18.58;1.70;;;;;;;;;;5044974;28;20045;-92
2023/01/14 09:35:13;;;;;;;9.43;1.20;;;;;;;;;;5044174;28;20495;-93
2023/01/14 09:37:38;;;;;;;14.70;1.73;;;;;;;;;;5044661;28;20102;-93
2023/01/14 09:40:04;;;;;;;23.10;2.60;;;;;;;;;;5043926;28;20018;-93
2023/01/14 09:42:31;;;;;;;24.80;2.35;;;;;;;;;;5045158;28;20026;-93
2023/01/14 09:45:11;;;;;;;28.67;2.70;;;;;;;;;;5044906;28;20032;-94
2023/01/14 09:47:37;;;;;;;25.88;2.58;;;;;;;;;;5008671;28;20388;-94
2023/01/14 09:50:06;;;;;;;22.13;2.65;;;;;;;;;;5008888;28;20018;-94
2023/01/14 09:52:50;;;;;;;13.82;1.80;;;;;;;;;;5041282;28;20029;-93
2023/01/14 09:55:31;;;;;;;21.20;2.20;;;;;;;;;;5049546;28;20024;-93
2023/01/14 09:58:12;;;;;;;22.45;2.45;;;;;;;;;;5032664;28;20021;-92
2023/01/14 10:00:54;;;;;;;21.40;2.47;;;;;;;;;;5043871;28;20120;-92
2023/01/14 10:03:19;;;;;;;;;;;;;;;;;;5044368;28;20022;-93
2023/01/14 10:05:48;;;;;;;28.37;3.77;;;;;;;;;;5026992;28;20287;-93
2023/01/14 10:08:14;;;;;;;28.98;2.58;;;;;;;;;;5044121;28;20314;-94
2023/01/14 10:10:43;;;;;;;22.90;2.40;;;;;;;;;;5041926;28;20145;-92
2023/01/14 10:13:14;;;;;;;39.90;5.85;;;;;;;;;;5043588;28;20018;-94
2023/01/14 10:15:43;;;;;;;21.92;3.13;;;;;;;;;;5044078;28;20476;-92
2023/01/14 10:18:16;;;;;;;23.45;2.78;;;;;;;;;;5027182;28;20128;-93
2023/01/14 10:20:47;;;;;;;30.88;2.47;;;;;;;;;;5033316;28;20136;-94
2023/01/14 10:23:15;;;;;;;31.73;2.95;;;;;;;;;;5027101;28;20022;-93
2023/01/14 10:25:44;;;;;;;22.08;2.53;;;;;;;;;;5009854;28;20030;-94
2023/01/14 10:28:12;;;;;;;27.83;3.63;;;;;;;;;;5030040;28;20503;-93
2023/01/14 10:30:39;;;;;;;27.55;3.53;;;;;;;;;;5028424;28;20022;-94
2023/01/14 10:33:05;;;;;;;26.20;3.47;;;;;;;;;;5044432;28;20058;-93
2023/01/14 10:35:35;;;;;;;34.53;3.13;;;;;;;;;;5044840;28;20022;-94
2023/01/14 10:38:01;;;;;;;31.58;6.45;;;;;;;;;;5029491;28;20060;-93
2023/01/14 10:40:28;;;;;;;19.70;2.75;;;;;;;;;;5030120;28;20049;-94
2023/01/14 10:42:54;;;;;;;24.02;3.35;;;;;;;;;;5013343;28;20022;-95
2023/01/14 10:45:20;;;;;;;24.10;3.25;;;;;;;;;;5030178;28;20091;-94
2023/01/14 10:47:46;;;;;;;16.45;3.53;;;;;;;;;;5014062;28;20047;-94
2023/01/14 10:50:21;;;;;;;13.98;2.92;;;;;;;;;;5027718;28;20034;-92
2023/01/14 10:52:46;;;;;;;17.38;2.30;;;;;;;;;;5014225;28;20022;-93
2023/01/14 10:55:12;;;;;;;21.20;3.42;;;;;;;;;;5030025;28;20022;-94
2023/01/14 10:57:49;;;;;;;18.02;2.10;;;;;;;;;;5013598;28;20376;-93
2023/01/14 11:00:30;;;;;;;17.02;2.10;;;;;;;;;;5028188;28;20065;-92
2023/01/14 11:02:56;;;;;;;18.60;2.57;;;;;;;;;;5013097;28;20420;-93
2023/01/14 11:05:26;;;;;;;12.90;1.58;;;;;;;;;;5027045;28;20275;-94
2023/01/14 11:07:52;;;;;;;10.70;1.45;;;;;;;;;;5028738;28;20117;-94
2023/01/14 11:10:20;;;;;;;14.52;1.70;;;;;;;;;;5028112;28;20113;-94
2023/01/14 11:12:45;;;;;;;15.35;2.03;;;;;;;;;;5028552;28;20014;-93
2023/01/14 11:15:31;;;;;;;21.63;1.98;;;;;;;;;;5028466;28;20380;-93
2023/01/14 11:18:14;;;;;;;13.02;2.10;;;;;;;;;;5026166;28;20033;-93
2023/01/14 11:20:39;;;;;;;14.68;1.90;;;;;;;;;;5028024;28;20014;-94
2023/01/14 11:23:13;;;;;;;14.38;2.65;;;;;;;;;;5029312;28;20026;-94
2023/01/14 11:25:41;;;;;;;13.50;1.90;;;;;;;;;;5028090;28;20018;-94
2023/01/14 11:28:07;;;;;;;14.93;1.95;;;;;;;;;;5026732;28;20041;-93
2023/01/14 11:30:33;;;;;;;13.60;2.38;;;;;;;;;;5027926;28;20021;-93
2023/01/14 11:32:59;;;;;;;25.15;2.75;;;;;;;;;;5011698;28;20093;-92
2023/01/14 11:35:28;;;;;;;26.08;4.22;;;;;;;;;;5012777;28;20030;-94
2023/01/14 11:37:54;;;;;;;12.50;1.80;;;;;;;;;;5014094;28;20049;-94
2023/01/14 11:40:22;;;;;;;14.95;2.60;;;;;;;;;;5028005;28;20053;-94
2023/01/14 11:42:47;;;;;;;7.95;1.58;;;;;;;;;;5014064;28;20029;-93
2023/01/14 11:45:12;;;;;;;12.27;1.40;;;;;;;;;;5012793;28;20010;-95
2023/01/14 11:47:57;;;;;;;8.63;1.10;;;;;;;;;;5011506;28;20029;-94
2023/01/14 11:50:22;;;;;;;10.50;1.42;;;;;;;;;;5031292;28;20044;-92
2023/01/14 11:53:26;;;;;;;8.73;1.20;;;;;;;;;;5017607;28;20380;-92
2023/01/14 11:55:54;;;;;;;9.45;0.95;;;;;;;;;;5238000;22;20065;-92
2023/01/14 11:58:21;;;;;;;9.70;1.25;;;;;;;;;;5011437;28;20425;-92
2023/01/14 12:00:53;;;;;;;6.70;1.52;;;;;;;;;;5009616;28;20015;-94
2023/01/14 12:03:37;;;;;;;12.52;1.40;;;;;;;;;;5008869;28;20022;-92
2023/01/14 12:06:13;;;;;;;13.75;1.20;;;;;;;;;;4997192;28;20022;-93
2023/01/14 12:08:39;;;;;;;8.45;1.55;;;;;;;;;;5010695;28;20034;-92
2023/01/14 12:11:06;;;;;;;6.07;1.60;;;;;;;;;;5008288;28;20019;-91
2023/01/14 12:16:49;;;;;;;10.88;0.98;;;;;;;;;;4995134;28;20027;-91
2023/01/14 12:19:36;;;;;;;9.52;1.08;;;;;;;;;;5016064;28;20142;-95
2023/01/14 12:37:27;;;;;;;17.67;2.22;;;;;;;;;;5013034;28;20477;-95
2023/01/14 12:45:42;;;;;;;3.10;0.57;;;;;;;;;;5024758;28;20511;-96
2023/01/14 12:48:09;;;;;;;2.00;0.43;;;;;;;;;;5005785;28;20037;-96
2023/01/14 12:50:54;;;;;;;5.45;1.02;;;;;;;;;;5018350;28;20060;-96
2023/01/14 12:53:25;;;;;;;2.45;0.82;;;;;;;;;;5001020;28;20026;-96
2023/01/14 12:55:51;;;;;;;4.75;0.82;;;;;;;;;;5009099;28;20107;-96
2023/01/14 12:58:21;;;;;;;9.50;1.42;;;;;;;;;;4998006;28;20369;-96
2023/01/14 13:01:04;;;;;;;6.95;1.75;;;;;;;;;;5009007;28;20025;-96